Meteo Giornale » Osservazioni meteo Francia » Cannes

ore: 19:30 - Osservazioni Meteo Cannes
Lat. 43° 33' N Lon. 6° 57' E Alt. 3 metri s.l.m.

sereno Europe/Paris

10 °C

Sereno

Temp. 24 Ore

4 °C

15 °C

Nord

5.5 Km/h

Dew point 7 °C

Umidità 81 %

Visibilità  10 Km

Il sole sorge alle ore 06:54

Il sole tramonta alle ore 18:31

Data e Ora Cielo e Fenomeni T °C DP °C Um. % Pres. hPa Vis. km Vento km/h
Oggi h: 19:30 sereno Sereno 10 7 81 1013 10 N 5.5
Oggi h: 19:00 sereno Sereno 12 7 71 1013 10 N 3.7
Oggi h: 18:30 sereno Sereno 13 7 66 1013 10 N 3.7
Oggi h: 18:00 sereno Sereno 13 7 66 1013 10 N 5.5
Oggi h: 17:30 sereno Sereno 14 7 62 1013 10 S/SE 9.3
Oggi h: 17:00 poco_nuvoloso Poco Nuvoloso 14 7 62 1013 10 SE 11.1
Oggi h: 16:30 poco_nuvoloso Poco Nuvoloso 15 8 62 1013 10 S/SE 13
Oggi h: 16:00 nuvoloso Nuvoloso 15 7 58 1013 10 SE 11.1
Oggi h: 15:30 sereno Sereno 15 7 58 1013 10 SE 13
Oggi h: 15:00 sereno Sereno 15 8 62 1013 10 SE 13
Oggi h: 14:30 sereno Sereno 15 8 62 1013 10 SE 11.1
Oggi h: 14:00 sereno Sereno 15 8 62 1014 10 S/SE 13
Oggi h: 13:30 poco_nuvoloso Poco Nuvoloso 15 8 62 1014 10 S/SE 13
Oggi h: 13:00 sereno Sereno 15 8 62 1014 10 S/SE 9.3
Oggi h: 12:30 sereno Sereno 15 7 58 1014 10 SE 13
Oggi h: 12:00 sereno Sereno 15 6 54 1014 10 SE 13
Oggi h: 11:30 sereno Sereno 15 6 54 1014 10 E/SE 11.1
Oggi h: 11:00 sereno Sereno 15 6 54 1015 10 E/SE 9.3
Oggi h: 10:30 poco_nuvoloso Poco Nuvoloso 14 5 54 1015 10 E 9.3
Oggi h: 10:00 sereno Sereno 13 5 58 1015 10 N 5.5
Oggi h: 09:30 sereno Sereno 11 5 66 1015 10 N 5.5
Oggi h: 08:30 sereno Sereno 7 3 75 1015 10 N 9.3
Oggi h: 08:00 sereno Sereno 5 3 86 1015 10 N 9.3
Oggi h: 07:30 sereno Sereno 4 2 86 1015 10 N 7.4
Oggi h: 07:00 sereno Sereno 4 2 86 1015 10 N 9.3
Oggi h: 05:00 sereno Sereno 4 2 86 1015 10 N 7.4
Oggi h: 03:30 sereno Sereno 4 2 86 1016 10 N 7.4
Oggi h: 03:00 sereno Sereno 4 2 86 1016 10 N 7.4
Oggi h: 02:30 sereno Sereno 4 3 93 1017 10 N 7.4
Oggi h: 02:00 sereno Sereno 5 3 86 1017 10 N 9.3
Oggi h: 01:30 sereno Sereno 5 3 86 1017 10 N 7.4
Oggi h: 01:00 sereno Sereno 5 3 86 1017 10 N 7.4
Oggi h: 00:30 sereno Sereno 5 4 93 1018 10 N 5.5
Oggi h: 00:00 sereno Sereno 6 4 86 1018 10 N 5.5
Ieri h: 23:30 sereno Sereno 6 4 86 1018 10 N 3.7
Ieri h: 23:00 sereno Sereno 6 4 86 1018 10 N 5.5
Ieri h: 22:30 sereno Sereno 6 4 86 1018 10 N 5.5
Ieri h: 22:00 sereno Sereno 6 5 93 1018 10 N 5.5
Ieri h: 21:30 sereno Sereno 7 5 87 1018 10 N 5.5
Ieri h: 20:30 sereno Sereno 8 5 81 1019 10 N 5.5
Ieri h: 20:00 sereno Sereno 8 5 81 1019 10 N 3.7